| time (UTC) | temp F | wind direction | speed MPH | gust MPH | rain 1hr in | rain 24hr in | rain mn in | humidity % | barometer mb |
| 20260507200203 | 69 | 36 | 3.0 | 12.0 | 0.00 | 0.17 | 0.12 | 26 | 1005.1 |
| 20260507195704 | 70 | 195 | 3.0 | 11.0 | 0.00 | 0.17 | 0.12 | 25 | 1005.3 |
| 20260507195200 | 69 | 254 | 4.0 | 13.0 | 0.00 | 0.18 | 0.12 | 26 | 1005.3 |
| 20260507194700 | 69 | 317 | 4.0 | 13.0 | 0.00 | 0.18 | 0.12 | 25 | 1005.4 |
| 20260507194201 | 69 | 355 | 4.0 | 11.0 | 0.00 | 0.18 | 0.12 | 25 | 1005.4 |
| 20260507193700 | 69 | 337 | 5.0 | 11.0 | 0.00 | 0.18 | 0.12 | 24 | 1005.5 |
| 20260507193159 | 69 | 335 | 5.0 | 15.0 | 0.00 | 0.18 | 0.12 | 24 | 1005.5 |
| 20260507192159 | 69 | 5 | 6.0 | 16.0 | 0.00 | 0.18 | 0.12 | 23 | 1005.6 |
| 20260507191700 | 69 | 330 | 4.0 | 16.0 | 0.00 | 0.19 | 0.12 | 24 | 1005.6 |
| 20260507191201 | 69 | 242 | 4.0 | 14.0 | 0.00 | 0.19 | 0.12 | 23 | 1005.5 |
| 20260507190700 | 69 | 273 | 5.0 | 13.0 | 0.00 | 0.19 | 0.12 | 23 | 1005.7 |
| 20260507190159 | 70 | 254 | 4.0 | 13.0 | 0.00 | 0.19 | 0.12 | 23 | 1005.7 |
| 20260507184657 | 69 | 331 | 4.0 | 12.0 | 0.00 | 0.19 | 0.12 | 24 | 1005.9 |
| 20260507184156 | 69 | 290 | 4.0 | 10.0 | 0.00 | 0.19 | 0.12 | 23 | 1005.9 |
| 20260507183659 | 69 | 355 | 6.0 | 14.0 | 0.00 | 0.19 | 0.12 | 24 | 1006.0 |
| 20260507183158 | 69 | 317 | 6.0 | 16.0 | 0.00 | 0.19 | 0.12 | 25 | 1005.8 |
| 20260507182657 | 69 | 211 | 5.0 | 16.0 | 0.00 | 0.19 | 0.12 | 25 | 1005.9 |
| 20260507182157 | 70 | 326 | 5.0 | 15.0 | 0.00 | 0.19 | 0.12 | 25 | 1005.9 |
| 20260507181158 | 70 | 286 | 4.0 | 14.0 | 0.00 | 0.19 | 0.12 | 26 | 1005.9 |
| 20260507180657 | 71 | 252 | 3.0 | 12.0 | 0.00 | 0.19 | 0.12 | 27 | 1006.2 |
| 20260507180158 | 70 | 293 | 4.0 | 14.0 | 0.00 | 0.19 | 0.12 | 28 | 1006.2 |
| 20260507175656 | 69 | 235 | 5.0 | 14.0 | 0.00 | 0.19 | 0.12 | 27 | 1006.3 |
| 20260507175157 | 70 | 325 | 5.0 | 14.0 | 0.00 | 0.19 | 0.12 | 27 | 1006.3 |
| 20260507174656 | 70 | 240 | 5.0 | 14.0 | 0.00 | 0.19 | 0.12 | 28 | 1006.3 |
| 20260507174157 | 69 | 308 | 5.0 | 13.0 | 0.00 | 0.19 | 0.12 | 29 | 1006.2 |
| 20260507173658 | 69 | 227 | 4.0 | 10.0 | 0.00 | 0.19 | 0.12 | 28 | 1006.2 |
| 20260507172657 | 69 | 330 | 5.0 | 11.0 | 0.00 | 0.19 | 0.12 | 30 | 1006.3 |
| 20260507172156 | 68 | 236 | 5.0 | 11.0 | 0.00 | 0.19 | 0.12 | 30 | 1006.2 |
| 20260507171657 | 67 | 336 | 5.0 | 10.0 | 0.00 | 0.19 | 0.12 | 31 | 1006.3 |
| 20260507171155 | 68 | 293 | 4.0 | 10.0 | 0.00 | 0.19 | 0.12 | 33 | 1006.3 |
| 20260507170655 | 68 | 229 | 5.0 | 11.0 | 0.00 | 0.19 | 0.12 | 33 | 1006.3 |
| 20260507165655 | 70 | 329 | 4.0 | 12.0 | 0.00 | 0.19 | 0.12 | 33 | 1006.5 |
| 20260507165155 | 69 | 309 | 5.0 | 12.0 | 0.00 | 0.19 | 0.12 | 33 | 1006.6 |
| 20260507164655 | 69 | 273 | 5.0 | 14.0 | 0.00 | 0.19 | 0.12 | 34 | 1006.6 |
| 20260507164152 | 69 | 339 | 4.0 | 14.0 | 0.00 | 0.19 | 0.12 | 35 | 1006.6 |
| 20260507163654 | 68 | 314 | 4.0 | 12.0 | 0.00 | 0.19 | 0.12 | 38 | 1006.7 |
| 20260507163154 | 67 | 18 | 4.0 | 12.0 | 0.00 | 0.19 | 0.12 | 39 | 1006.7 |
| 20260507162150 | 64 | 304 | 3.0 | 9.0 | 0.00 | 0.19 | 0.12 | 45 | 1006.8 |
| 20260507161149 | 64 | 267 | 5.0 | 13.0 | 0.00 | 0.19 | 0.12 | 44 | 1007.0 |
| 20260507160649 | 65 | 242 | 4.0 | 13.0 | 0.00 | 0.19 | 0.12 | 42 | 1007.1 |
| 20260507160146 | 67 | 273 | 3.0 | 11.0 | 0.00 | 0.19 | 0.12 | 42 | 1007.2 |
| 20260507155644 | 68 | 356 | 3.0 | 11.0 | 0.00 | 0.19 | 0.12 | 41 | 1007.1 |
| 20260507155144 | 67 | 238 | 3.0 | 11.0 | 0.00 | 0.19 | 0.12 | 44 | 1007.1 |
| 20260507154644 | 65 | 248 | 4.0 | 11.0 | 0.00 | 0.19 | 0.12 | 45 | 1007.2 |
| 20260507154145 | 65 | 327 | 3.0 | 11.0 | 0.00 | 0.19 | 0.12 | 45 | 1007.3 |
| 20260507153645 | 65 | 304 | 3.0 | 11.0 | 0.00 | 0.19 | 0.12 | 46 | 1007.4 |
| 20260507153145 | 64 | 337 | 3.0 | 8.0 | 0.00 | 0.19 | 0.12 | 47 | 1007.4 |
| 20260507152644 | 64 | 287 | 3.0 | 10.0 | 0.00 | 0.19 | 0.12 | 47 | 1007.4 |
| 20260507151644 | 65 | 5 | 4.0 | 11.0 | 0.00 | 0.19 | 0.12 | 45 | 1007.6 |
| 20260507151144 | 66 | 229 | 4.0 | 13.0 | 0.00 | 0.19 | 0.12 | 44 | 1007.5 |
| 20260507150644 | 66 | 294 | 3.0 | 13.0 | 0.00 | 0.19 | 0.12 | 44 | 1007.5 |
| 20260507150144 | 65 | 231 | 3.0 | 10.0 | 0.00 | 0.19 | 0.12 | 47 | 1007.6 |
| 20260507145645 | 63 | 285 | 3.0 | 10.0 | 0.00 | 0.19 | 0.12 | 48 | 1007.7 |
| 20260507145145 | 63 | 307 | 3.0 | 10.0 | 0.00 | 0.19 | 0.12 | 46 | 1007.7 |
| 20260507144644 | 64 | 288 | 3.0 | 10.0 | 0.00 | 0.19 | 0.12 | 45 | 1007.9 |
| 20260507144145 | 64 | 317 | 3.0 | 10.0 | 0.00 | 0.19 | 0.12 | 46 | 1007.9 |
| 20260507143143 | 67 | 229 | 2.0 | 8.0 | 0.00 | 0.19 | 0.12 | 43 | 1007.9 |
| 20260507142642 | 66 | 303 | 2.0 | 7.0 | 0.00 | 0.19 | 0.12 | 44 | 1007.9 |
| 20260507141143 | 65 | 314 | 4.0 | 10.0 | 0.00 | 0.19 | 0.12 | 46 | 1008.0 |
| 20260507140642 | 65 | 281 | 3.0 | 9.0 | 0.00 | 0.19 | 0.12 | 45 | 1008.0 |
| 20260507140143 | 65 | 320 | 3.0 | 9.0 | 0.00 | 0.19 | 0.12 | 46 | 1008.0 |
| 20260507135643 | 64 | 344 | 3.0 | 10.0 | 0.00 | 0.19 | 0.12 | 48 | 1008.0 |
| 20260507135143 | 64 | 327 | 4.0 | 10.0 | 0.00 | 0.19 | 0.12 | 50 | 1008.0 |
| 20260507134640 | 62 | 260 | 4.0 | 10.0 | 0.00 | 0.19 | 0.12 | 52 | 1008.0 |
| 20260507134140 | 62 | 313 | 3.0 | 9.0 | 0.00 | 0.19 | 0.12 | 51 | 1008.0 |
| 20260507133640 | 62 | 4 | 4.0 | 10.0 | 0.00 | 0.19 | 0.12 | 54 | 1007.9 |
| 20260507133140 | 61 | 321 | 5.0 | 10.0 | 0.00 | 0.19 | 0.12 | 55 | 1008.0 |
| 20260507132640 | 60 | 340 | 4.0 | 10.0 | 0.00 | 0.19 | 0.12 | 57 | 1008.0 |
| 20260507132141 | 59 | 346 | 3.0 | 10.0 | 0.00 | 0.19 | 0.12 | 59 | 1008.0 |
| 20260507130641 | 58 | 333 | 2.0 | 10.0 | 0.00 | 0.19 | 0.12 | 67 | 1008.3 |
| 20260507125638 | 56 | 339 | 2.0 | 10.0 | 0.00 | 0.19 | 0.12 | 71 | 1008.3 |
| 20260507124637 | 55 | 350 | 2.0 | 9.0 | 0.00 | 0.19 | 0.12 | 76 | 1008.5 |
| 20260507124137 | 55 | 328 | 2.0 | 8.0 | 0.00 | 0.19 | 0.12 | 76 | 1008.4 |
| 20260507123637 | 54 | 304 | 2.0 | 8.0 | 0.00 | 0.19 | 0.12 | 81 | 1008.5 |
| 20260507123139 | 53 | 335 | 2.0 | 8.0 | 0.00 | 0.19 | 0.12 | 83 | 1008.4 |
| 20260507122638 | 52 | 294 | 2.0 | 7.0 | 0.00 | 0.19 | 0.12 | 83 | 1008.4 |
| 20260507122137 | 52 | 298 | 2.0 | 7.0 | 0.00 | 0.19 | 0.12 | 84 | 1008.3 |
| 20260507121639 | 51 | 245 | 2.0 | 6.0 | 0.00 | 0.19 | 0.12 | 85 | 1008.3 |
| 20260507121138 | 51 | 275 | 1.0 | 7.0 | 0.00 | 0.19 | 0.12 | 86 | 1008.4 |
| 20260507120140 | 51 | 306 | 1.0 | 4.0 | 0.00 | 0.19 | 0.12 | 87 | 1008.2 |
| 20260507115639 | 51 | 310 | 2.0 | 4.0 | 0.00 | 0.19 | 0.12 | 87 | 1008.2 |
| 20260507115138 | 50 | 258 | 2.0 | 8.0 | 0.00 | 0.19 | 0.12 | 87 | 1008.3 |
| 20260507114635 | 50 | 298 | 1.0 | 8.0 | 0.00 | 0.19 | 0.12 | 87 | 1008.2 |
| 20260507114135 | 50 | 273 | 1.0 | 4.0 | 0.00 | 0.19 | 0.12 | 87 | 1008.2 |
| 20260507113636 | 50 | 275 | 1.0 | 4.0 | 0.00 | 0.19 | 0.12 | 87 | 1008.2 |
| 20260507112637 | 50 | 295 | 1.0 | 4.0 | 0.00 | 0.19 | 0.12 | 87 | 1008.1 |
| 20260507112137 | 50 | 318 | 1.0 | 4.0 | 0.00 | 0.19 | 0.12 | 87 | 1008.1 |
| 20260507111636 | 50 | 254 | 1.0 | 6.0 | 0.00 | 0.19 | 0.12 | 87 | 1008.1 |
| 20260507110636 | 50 | 311 | 1.0 | 3.0 | 0.01 | 0.19 | 0.12 | 87 | 1008.0 |
| 20260507110136 | 50 | 324 | 1.0 | 3.0 | 0.01 | 0.19 | 0.12 | 87 | 1007.8 |
| 20260507105637 | 50 | 269 | 1.0 | 4.0 | 0.01 | 0.19 | 0.12 | 87 | 1007.9 |
| 20260507105137 | 50 | 266 | 1.0 | 5.0 | 0.01 | 0.19 | 0.12 | 87 | 1008.0 |
| 20260507104636 | 50 | 262 | 1.0 | 5.0 | 0.02 | 0.19 | 0.12 | 87 | 1008.2 |
| 20260507104136 | 51 | 253 | 1.0 | 4.0 | 0.02 | 0.19 | 0.12 | 87 | 1008.3 |
| 20260507103638 | 50 | 252 | 1.0 | 4.0 | 0.03 | 0.19 | 0.12 | 87 | 1008.2 |
| 20260507103137 | 50 | 247 | 1.0 | 4.0 | 0.04 | 0.19 | 0.12 | 87 | 1008.3 |
| 20260507102636 | 50 | 248 | 1.0 | 4.0 | 0.04 | 0.19 | 0.12 | 87 | 1008.2 |
| 20260507102135 | 50 | 279 | 1.0 | 4.0 | 0.04 | 0.19 | 0.12 | 88 | 1007.7 |
| 20260507101635 | 50 | 271 | 1.0 | 3.0 | 0.05 | 0.19 | 0.12 | 88 | 1007.6 |
| 20260507101135 | 50 | 271 | 1.0 | 5.0 | 0.05 | 0.18 | 0.11 | 88 | 1007.7 |
| 20260507100636 | 50 | 291 | 1.0 | 5.0 | 0.07 | 0.18 | 0.11 | 88 | 1007.9 |
| 20260507100137 | 50 | 301 | 1.0 | 4.0 | 0.07 | 0.18 | 0.11 | 88 | 1007.7 |
| 20260507095635 | 50 | 324 | 1.0 | 4.0 | 0.08 | 0.18 | 0.11 | 88 | 1007.5 |
| 20260507095136 | 50 | 286 | 1.0 | 6.0 | 0.08 | 0.18 | 0.11 | 88 | 1007.4 |
| 20260507094636 | 50 | 303 | 1.0 | 6.0 | 0.07 | 0.17 | 0.10 | 88 | 1007.5 |
| 20260507094136 | 50 | 312 | 2.0 | 7.0 | 0.08 | 0.17 | 0.10 | 88 | 1007.6 |
| 20260507093136 | 51 | 352 | 3.0 | 8.0 | 0.06 | 0.15 | 0.08 | 87 | 1007.4 |
| 20260507092637 | 51 | 234 | 2.0 | 9.0 | 0.06 | 0.15 | 0.08 | 88 | 1007.4 |
| 20260507092133 | 51 | 310 | 2.0 | 9.0 | 0.06 | 0.15 | 0.08 | 87 | 1007.4 |
| 20260507091635 | 52 | 327 | 2.0 | 9.0 | 0.05 | 0.14 | 0.07 | 88 | 1007.4 |
| 20260507091133 | 52 | 314 | 1.0 | 7.0 | 0.05 | 0.13 | 0.06 | 87 | 1007.5 |
| 20260507090635 | 52 | 292 | 1.0 | 6.0 | 0.03 | 0.11 | 0.05 | 87 | 1007.6 |
| 20260507090131 | 52 | 224 | 1.0 | 5.0 | 0.03 | 0.11 | 0.04 | 87 | 1007.8 |
| 20260507085132 | 52 | 321 | 2.0 | 5.0 | 0.02 | 0.10 | 0.03 | 88 | 1007.6 |
| 20260507084627 | 52 | 289 | 2.0 | 5.0 | 0.02 | 0.10 | 0.03 | 87 | 1007.8 |
| 20260507084127 | 52 | 317 | 1.0 | 3.0 | 0.02 | 0.09 | 0.02 | 87 | 1007.7 |
| 20260507083628 | 52 | 267 | 1.0 | 3.0 | 0.02 | 0.09 | 0.02 | 87 | 1007.3 |
| 20260507082624 | 53 | 250 | 0.0 | 3.0 | 0.02 | 0.09 | 0.02 | 87 | 1007.3 |
| 20260507082124 | 53 | 290 | 1.0 | 3.0 | 0.02 | 0.09 | 0.02 | 86 | 1007.2 |
| 20260507081123 | 53 | 258 | 2.0 | 9.0 | 0.01 | 0.08 | 0.01 | 86 | 1007.1 |
| 20260507080625 | 53 | 258 | 2.0 | 9.0 | 0.01 | 0.08 | 0.01 | 86 | 1007.6 |
| 20260507080121 | 54 | 247 | 2.0 | 7.0 | 0.01 | 0.08 | 0.01 | 86 | 1007.4 |
| 20260507075621 | 54 | 319 | 2.0 | 8.0 | 0.01 | 0.08 | 0.01 | 86 | 1007.2 |
| 20260507075123 | 54 | 281 | 2.0 | 8.0 | 0.01 | 0.08 | 0.01 | 86 | 1007.1 |
| 20260507074622 | 55 | 261 | 2.0 | 7.0 | 0.01 | 0.08 | 0.01 | 85 | 1006.8 |
| 20260507074119 | 55 | 285 | 2.0 | 7.0 | 0.00 | 0.07 | 0.00 | 85 | 1007.0 |
| 20260507073619 | 55 | 304 | 1.0 | 8.0 | 0.00 | 0.07 | 0.00 | 85 | 1007.1 |
| 20260507073117 | 55 | 306 | 1.0 | 8.0 | 0.00 | 0.07 | 0.00 | 84 | 1007.0 |
| 20260507072618 | 55 | 288 | 1.0 | 7.0 | 0.00 | 0.07 | 0.00 | 84 | 1006.6 |
| 20260507072118 | 55 | 318 | 2.0 | 9.0 | 0.00 | 0.07 | 0.00 | 84 | 1006.2 |
| 20260507071618 | 55 | 317 | 2.0 | 10.0 | 0.00 | 0.07 | 0.00 | 84 | 1006.2 |
| 20260507071118 | 55 | 302 | 2.0 | 10.0 | 0.00 | 0.07 | 0.00 | 84 | 1006.2 |
| 20260507070619 | 56 | 325 | 2.0 | 7.0 | 0.00 | 0.07 | 0.00 | 85 | 1006.4 |
| 20260507065118 | 56 | 317 | 1.0 | 6.0 | 0.00 | 0.07 | 0.00 | 85 | 1006.3 |
| 20260507064617 | 56 | 274 | 2.0 | 7.0 | 0.00 | 0.07 | 0.00 | 85 | 1006.4 |
| 20260507064116 | 56 | 331 | 2.0 | 9.0 | 0.00 | 0.07 | 0.00 | 84 | 1006.5 |
| 20260507063115 | 56 | 279 | 1.0 | 6.0 | 0.00 | 0.07 | 0.00 | 84 | 1006.5 |
| 20260507062115 | 56 | 275 | 1.0 | 4.0 | 0.00 | 0.07 | 0.00 | 84 | 1006.4 |
| 20260507061617 | 56 | 285 | 2.0 | 6.0 | 0.00 | 0.07 | 0.00 | 84 | 1006.2 |
| 20260507061115 | 57 | 274 | 3.0 | 9.0 | 0.00 | 0.07 | 0.00 | 84 | 1006.1 |
| 20260507060615 | 57 | 347 | 2.0 | 9.0 | 0.00 | 0.07 | 0.00 | 84 | 1006.3 |
| 20260507060116 | 57 | 273 | 2.0 | 6.0 | 0.00 | 0.07 | 0.00 | 84 | 1006.5 |
| 20260507055616 | 57 | 311 | 2.0 | 6.0 | 0.00 | 0.07 | 0.00 | 84 | 1006.4 |
| 20260507055112 | 57 | 333 | 2.0 | 10.0 | 0.00 | 0.07 | 0.00 | 85 | 1006.4 |
| 20260507054613 | 57 | 287 | 2.0 | 10.0 | 0.00 | 0.07 | 0.00 | 85 | 1006.5 |
| 20260507053114 | 58 | 229 | 2.0 | 8.0 | 0.00 | 0.07 | 0.00 | 86 | 1006.6 |
| 20260507052614 | 58 | 279 | 2.0 | 6.0 | 0.00 | 0.07 | 0.00 | 86 | 1006.6 |
| 20260507052112 | 58 | 290 | 2.0 | 9.0 | 0.00 | 0.07 | 0.00 | 86 | 1006.5 |
| 20260507051611 | 58 | 301 | 3.0 | 10.0 | 0.00 | 0.07 | 0.00 | 86 | 1006.3 |
| 20260507051112 | 58 | 331 | 2.0 | 10.0 | 0.00 | 0.07 | 0.00 | 87 | 1006.3 |
| 20260507050611 | 59 | 308 | 2.0 | 6.0 | 0.00 | 0.07 | 0.00 | 88 | 1006.4 |
| 20260507050113 | 59 | 280 | 2.0 | 11.0 | 0.00 | 0.07 | 0.00 | 89 | 1006.4 |
| 20260507045610 | 59 | 285 | 3.0 | 12.0 | 0.00 | 0.07 | 0.00 | 89 | 1006.4 |
| 20260507045111 | 59 | 253 | 3.0 | 12.0 | 0.01 | 0.07 | 0.00 | 89 | 1006.4 |
| 20260507044611 | 59 | 327 | 3.0 | 8.0 | 0.01 | 0.07 | 0.00 | 89 | 1006.4 |
| 20260507044109 | 60 | 344 | 2.0 | 8.0 | 0.01 | 0.07 | 0.00 | 90 | 1006.4 |
| 20260507043609 | 60 | 271 | 2.0 | 8.0 | 0.01 | 0.07 | 0.00 | 91 | 1006.2 |
| 20260507042607 | 60 | 269 | 2.0 | 7.0 | 0.01 | 0.07 | 0.00 | 91 | 1006.2 |
| 20260507042106 | 60 | 267 | 2.0 | 8.0 | 0.01 | 0.07 | 0.00 | 91 | 1006.3 |
| 20260507041605 | 60 | 250 | 2.0 | 8.0 | 0.01 | 0.07 | 0.00 | 91 | 1006.4 |
| 20260507040604 | 60 | 252 | 2.0 | 9.0 | 0.01 | 0.07 | 0.00 | 91 | 1006.5 |
| 20260507040104 | 60 | 273 | 2.0 | 9.0 | 0.01 | 0.07 | 0.00 | 91 | 1006.6 |
| 20260507035606 | 60 | 261 | 2.0 | 7.0 | 0.01 | 0.07 | 0.07 | 91 | 1006.7 |
| 20260507035103 | 60 | 252 | 2.0 | 7.0 | 0.00 | 0.06 | 0.06 | 91 | 1006.6 |
| 20260507034602 | 60 | 261 | 3.0 | 11.0 | 0.00 | 0.06 | 0.06 | 91 | 1006.5 |
| 20260507034100 | 60 | 0 | 3.0 | 11.0 | 0.00 | 0.06 | 0.06 | 91 | 1006.4 |
| 20260507033601 | 60 | 230 | 3.0 | 9.0 | 0.00 | 0.06 | 0.06 | 91 | 1006.3 |
| 20260507032600 | 60 | 246 | 3.0 | 14.0 | 0.00 | 0.06 | 0.06 | 91 | 1006.2 |
| 20260507032100 | 60 | 252 | 3.0 | 10.0 | 0.00 | 0.06 | 0.06 | 91 | 1006.1 |
| 20260507031600 | 60 | 222 | 3.0 | 12.0 | 0.00 | 0.06 | 0.06 | 91 | 1006.0 |
| 20260507031102 | 60 | 230 | 3.0 | 12.0 | 0.00 | 0.06 | 0.06 | 91 | 1005.9 |
| 20260507030601 | 60 | 223 | 2.0 | 9.0 | 0.00 | 0.06 | 0.06 | 91 | 1005.8 |
| 20260507030101 | 60 | 263 | 3.0 | 10.0 | 0.00 | 0.06 | 0.06 | 91 | 1005.8 |
| 20260507025559 | 60 | 236 | 3.0 | 10.0 | 0.00 | 0.06 | 0.06 | 91 | 1005.7 |
| 20260507024558 | 60 | 252 | 3.0 | 14.0 | 0.00 | 0.06 | 0.06 | 91 | 1005.9 |
| 20260507024058 | 59 | 265 | 3.0 | 14.0 | 0.00 | 0.06 | 0.06 | 91 | 1006.1 |
| 20260507023058 | 59 | 216 | 2.0 | 7.0 | 0.00 | 0.06 | 0.06 | 91 | 1006.0 |
| 20260507022559 | 59 | 192 | 2.0 | 7.0 | 0.00 | 0.06 | 0.06 | 91 | 1005.9 |
| 20260507022058 | 59 | 303 | 2.0 | 9.0 | 0.00 | 0.06 | 0.06 | 91 | 1005.9 |
| 20260507021558 | 59 | 255 | 2.0 | 9.0 | 0.00 | 0.06 | 0.06 | 91 | 1005.9 |
| 20260507020559 | 59 | 206 | 2.0 | 10.0 | 0.00 | 0.06 | 0.06 | 91 | 1006.1 |
| 20260507020057 | 59 | 178 | 3.0 | 10.0 | 0.00 | 0.06 | 0.06 | 91 | 1005.8 |
| 20260507015557 | 59 | 187 | 2.0 | 10.0 | 0.00 | 0.06 | 0.06 | 91 | 1005.8 |
| 20260507015057 | 59 | 195 | 3.0 | 8.0 | 0.00 | 0.06 | 0.06 | 91 | 1006.0 |
| 20260507014557 | 59 | 211 | 3.0 | 8.0 | 0.00 | 0.06 | 0.06 | 91 | 1006.0 |
| 20260507014054 | 59 | 194 | 3.0 | 8.0 | 0.00 | 0.06 | 0.06 | 91 | 1006.0 |
| 20260507013555 | 59 | 172 | 3.0 | 10.0 | 0.00 | 0.06 | 0.06 | 91 | 1006.1 |
| 20260507013053 | 59 | 200 | 4.0 | 13.0 | 0.00 | 0.06 | 0.06 | 91 | 1006.1 |
| 20260507012555 | 59 | 192 | 3.0 | 13.0 | 0.00 | 0.06 | 0.06 | 91 | 1006.1 |
| 20260507012053 | 59 | 202 | 3.0 | 12.0 | 0.00 | 0.06 | 0.06 | 91 | 1006.2 |
| 20260507011553 | 58 | 185 | 3.0 | 10.0 | 0.00 | 0.06 | 0.06 | 91 | 1006.3 |
| 20260507010553 | 58 | 226 | 3.0 | 11.0 | 0.00 | 0.06 | 0.06 | 91 | 1006.4 |
| 20260507005550 | 58 | 211 | 4.0 | 12.0 | 0.00 | 0.06 | 0.06 | 91 | 1006.5 |
| 20260507005051 | 58 | 215 | 4.0 | 12.0 | 0.00 | 0.06 | 0.06 | 91 | 1006.5 |
| 20260507004549 | 58 | 132 | 4.0 | 13.0 | 0.01 | 0.06 | 0.06 | 91 | 1006.4 |
| 20260507004049 | 58 | 188 | 4.0 | 13.0 | 0.01 | 0.06 | 0.06 | 90 | 1006.3 |
| 20260507003550 | 58 | 193 | 3.0 | 10.0 | 0.01 | 0.06 | 0.06 | 90 | 1006.4 |
| 20260507003048 | 58 | 184 | 4.0 | 9.0 | 0.01 | 0.06 | 0.06 | 90 | 1006.4 |
| 20260507002547 | 58 | 213 | 4.0 | 10.0 | 0.01 | 0.06 | 0.06 | 90 | 1006.4 |
| 20260507002048 | 58 | 196 | 4.0 | 11.0 | 0.02 | 0.06 | 0.06 | 90 | 1006.3 |
| 20260507001548 | 59 | 144 | 4.0 | 11.0 | 0.02 | 0.06 | 0.06 | 90 | 1006.3 |
| 20260507001049 | 59 | 231 | 3.0 | 9.0 | 0.02 | 0.06 | 0.06 | 90 | 1006.2 |
| 20260507000548 | 59 | 237 | 3.0 | 9.0 | 0.02 | 0.06 | 0.06 | 90 | 1006.1 |
| 20260507000048 | 59 | 159 | 4.0 | 13.0 | 0.02 | 0.06 | 0.06 | 90 | 1006.0 |
| 20260506235548 | 59 | 229 | 4.0 | 17.0 | 0.02 | 0.06 | 0.06 | 90 | 1006.1 |
| 20260506234546 | 59 | 202 | 5.0 | 14.0 | 0.01 | 0.05 | 0.05 | 90 | 1006.2 |
| 20260506234046 | 59 | 236 | 5.0 | 14.0 | 0.01 | 0.05 | 0.05 | 89 | 1006.0 |
| 20260506233546 | 59 | 244 | 5.0 | 13.0 | 0.01 | 0.05 | 0.05 | 89 | 1006.0 |
| 20260506233046 | 60 | 220 | 4.0 | 16.0 | 0.01 | 0.05 | 0.05 | 89 | 1005.9 |
| 20260506232546 | 60 | 155 | 4.0 | 16.0 | 0.01 | 0.05 | 0.05 | 89 | 1006.0 |
| 20260506232048 | 60 | 136 | 4.0 | 11.0 | 0.00 | 0.04 | 0.05 | 89 | 1006.0 |
| 20260506231546 | 60 | 154 | 4.0 | 11.0 | 0.00 | 0.04 | 0.04 | 89 | 1006.0 |
| 20260506231047 | 60 | 234 | 4.0 | 10.0 | 0.00 | 0.04 | 0.04 | 88 | 1006.0 |
| 20260506230546 | 60 | 140 | 4.0 | 11.0 | 0.00 | 0.04 | 0.04 | 88 | 1006.0 |
| 20260506230046 | 60 | 186 | 5.0 | 11.0 | 0.01 | 0.04 | 0.04 | 88 | 1006.1 |
| 20260506225546 | 60 | 230 | 5.0 | 11.0 | 0.01 | 0.04 | 0.04 | 88 | 1006.0 |
| 20260506225048 | 60 | 218 | 4.0 | 9.0 | 0.01 | 0.04 | 0.04 | 88 | 1006.1 |
| 20260506224546 | 61 | 179 | 3.0 | 8.0 | 0.01 | 0.04 | 0.04 | 88 | 1006.1 |
| 20260506224046 | 61 | 222 | 4.0 | 10.0 | 0.01 | 0.04 | 0.04 | 87 | 1006.3 |
| 20260506223547 | 61 | 227 | 4.0 | 11.0 | 0.01 | 0.04 | 0.04 | 87 | 1006.2 |
| 20260506223045 | 61 | 182 | 4.0 | 11.0 | 0.01 | 0.04 | 0.04 | 87 | 1006.3 |
| 20260506222548 | 62 | 185 | 3.0 | 11.0 | 0.01 | 0.04 | 0.04 | 87 | 1006.4 |
| 20260506222046 | 62 | 217 | 3.0 | 11.0 | 0.01 | 0.04 | 0.04 | 87 | 1006.5 |
| 20260506221546 | 62 | 198 | 3.0 | 10.0 | 0.01 | 0.04 | 0.04 | 87 | 1006.5 |
| 20260506221046 | 62 | 189 | 4.0 | 10.0 | 0.01 | 0.04 | 0.04 | 86 | 1006.5 |
| 20260506220546 | 62 | 137 | 4.0 | 11.0 | 0.01 | 0.04 | 0.04 | 86 | 1006.5 |
| 20260506220046 | 62 | 229 | 4.0 | 11.0 | 0.00 | 0.03 | 0.03 | 86 | 1006.6 |
| 20260506215545 | 62 | 209 | 5.0 | 16.0 | 0.01 | 0.03 | 0.03 | 85 | 1006.7 |
| 20260506214547 | 62 | 158 | 4.0 | 10.0 | 0.01 | 0.03 | 0.03 | 84 | 1007.0 |
| 20260506214045 | 63 | 221 | 4.0 | 11.0 | 0.01 | 0.03 | 0.03 | 84 | 1007.0 |
| 20260506213544 | 63 | 182 | 4.0 | 14.0 | 0.01 | 0.03 | 0.03 | 84 | 1007.1 |
| 20260506213043 | 63 | 242 | 5.0 | 14.0 | 0.01 | 0.03 | 0.03 | 84 | 1007.0 |
| 20260506212544 | 63 | 215 | 5.0 | 18.0 | 0.01 | 0.03 | 0.03 | 83 | 1007.0 |
| 20260506212043 | 63 | 206 | 5.0 | 18.0 | 0.01 | 0.03 | 0.03 | 83 | 1007.0 |
| 20260506211042 | 63 | 242 | 5.0 | 14.0 | 0.01 | 0.03 | 0.03 | 83 | 1007.0 |
| 20260506210042 | 62 | 141 | 6.0 | 19.0 | 0.01 | 0.03 | 0.03 | 82 | 1007.1 |
| 20260506205539 | 63 | 214 | 7.0 | 16.0 | 0.00 | 0.02 | 0.02 | 82 | 1007.0 |
| 20260506205039 | 63 | 205 | 6.0 | 16.0 | 0.01 | 0.02 | 0.02 | 81 | 1007.1 |
| 20260506204540 | 63 | 130 | 5.0 | 16.0 | 0.01 | 0.02 | 0.02 | 81 | 1007.3 |
| 20260506204039 | 63 | 199 | 5.0 | 14.0 | 0.01 | 0.02 | 0.02 | 80 | 1007.3 |
| 20260506203542 | 64 | 203 | 5.0 | 14.0 | 0.01 | 0.02 | 0.02 | 79 | 1007.3 |
| 20260506203040 | 64 | 121 | 5.0 | 13.0 | 0.01 | 0.02 | 0.02 | 78 | 1007.4 |
| 20260506202539 | 64 | 204 | 6.0 | 19.0 | 0.01 | 0.02 | 0.02 | 78 | 1007.3 |
| 20260506202037 | 64 | 142 | 6.0 | 19.0 | 0.01 | 0.02 | 0.02 | 78 | 1007.2 |